Airfield :
LOGIN :

Register | Disclaimer

   EN    FR    IT 

 










Legend :    VFR   Marginal VFR   IFR   Intensive IFR   Very Intensive IFR
Visi :
Ceiling :
>= 8 km
>= 3000ft
5 to 8 km
1000 to 3000 ft
1500m to 5 km
500 to 1000 ft
800 to 1500m
200 to 500 ft
< 800m
< 200 ft
Symbols :   Thunderstorms  Fog  Heavy snow  Heavy precipitations  Wind > 20 kt
SIGMETs :     Misc.  Thunderstorms  Icing  Turbulence  Mountain Waves  Volcanic Ashes






- Airport Elevation : 499 ft
- IATA code : TLS


LFBO - Toulouse / Blagnac

CURRENT METAR :
  • 231900Z AUTO VRB02KT 9999 -RA FEW023/// SCT031/// OVC039/// ///CB 06/05 Q1002 TEMPO 4000 RA BKN007

EXPIRED METARs :
  • 231830Z AUTO 34003KT 7000 -RA SCT019/// BKN026/// OVC037/// ///CB 07/05 Q1003 TEMPO 4000 RA BKN007
  • 231800Z AUTO VRB03KT 6000 RA BKN017/// OVC023/// ///CB 07/05 Q1003 TEMPO 4000 RA BKN007
  • 231730Z AUTO VRB02KT 7000 RA BKN019/// OVC036/// ///TCU 07/05 Q1003 TEMPO 4000 RA BKN004
  • 231700Z AUTO 31004KT 9999 FEW021 BKN036 BKN066 08/04 Q1002 TEMPO 4000 RA BKN004
  • 231630Z AUTO 32008KT 290V350 9999 FEW038 BKN080 OVC100 08/05 Q1002 TEMPO 4000 RA BKN004

TAF TAF LFBO
Valid from the 23 at 18:00 until the 25 at 00:00 UTC


231700Z 2318/2424 03006KT 9999 SCT014 BKN030
TEMPO 2318/2404 4000 RA BKN007
BECMG 2404/2406 29010KT BKN011
PROB40
TEMPO 2404/2408 3000 RADZ BKN008
BECMG 2408/2410 SCT025 BKN040
TEMPO 2413/2424 27016G27KT 4000 SHRA BKN013 SCT030TCU
ATIS : +33 5 62 74 66 36



MET'MAP, your aeronautical weather chart ! - Copyright ORBIFLY December 2007 - Disclaimer

ORBIFLY MET'MAP TEAM :

Programming & Development : Alexandra Zaïnal
Concept & original design : Baudouin d'Aumeries
Assistance for programming : Marc-Olivier Méhu
Technical & hardware support : Manuel Goepfert

Contact : metmap@orbifly.com




SOURCES & CREDITS :

   NOAA